createdAt,value
2018-11-29T00:00:12.306Z,2.12
2018-11-29T00:06:07.312Z,2.17
2018-11-29T00:12:02.298Z,3.38
2018-11-29T00:17:57.335Z,3.12
2018-11-29T00:23:52.356Z,2.73
2018-11-29T00:29:47.312Z,2.5
2018-11-29T00:35:42.313Z,2.97
2018-11-29T00:41:37.337Z,2.8
2018-11-29T00:47:32.329Z,3.23
2018-11-29T00:53:27.334Z,2.76
2018-11-29T00:59:22.333Z,3.06
2018-11-29T01:05:17.345Z,3.08
2018-11-29T01:11:12.358Z,2.87
2018-11-29T01:17:07.350Z,3.32
2018-11-29T01:23:02.345Z,2.62
2018-11-29T01:28:57.348Z,2.26
2018-11-29T01:34:52.355Z,2.76
2018-11-29T01:40:47.401Z,3.76
2018-11-29T01:46:42.353Z,3.65
2018-11-29T01:52:37.367Z,3.28
2018-11-29T01:58:32.413Z,3.14
2018-11-29T02:04:27.391Z,2.81
2018-11-29T02:10:22.363Z,2.56
2018-11-29T02:16:17.392Z,2.83
2018-11-29T02:22:12.369Z,2.57
2018-11-29T02:28:07.365Z,2.86
2018-11-29T02:34:02.377Z,2.92
2018-11-29T02:39:57.408Z,3.44
2018-11-29T02:45:52.400Z,3.26
2018-11-29T02:51:47.453Z,3.04
2018-11-29T02:57:42.422Z,2.58
2018-11-29T03:03:37.402Z,2.65
2018-11-29T03:09:32.405Z,2.68
2018-11-29T03:15:27.444Z,3
2018-11-29T03:21:22.397Z,3.09
2018-11-29T03:27:17.417Z,3.36
2018-11-29T03:33:12.418Z,3.29
2018-11-29T03:39:07.449Z,3.52
2018-11-29T03:45:02.421Z,3.65
2018-11-29T03:50:57.422Z,3.14
2018-11-29T03:56:52.429Z,3.16
2018-11-29T04:02:47.439Z,3.14
2018-11-29T04:08:42.439Z,3.45
2018-11-29T04:14:37.480Z,3.22
2018-11-29T04:20:32.427Z,2.99
2018-11-29T04:26:27.512Z,3.22
2018-11-29T04:32:22.452Z,2.86
2018-11-29T04:38:17.468Z,2.89
2018-11-29T04:44:12.458Z,6.13
2018-11-29T04:50:07.451Z,3.87
2018-11-29T04:56:02.453Z,3.25
2018-11-29T05:01:57.485Z,3.36
2018-11-29T05:07:52.492Z,3.33
2018-11-29T05:13:47.464Z,3.14
2018-11-29T05:19:42.481Z,3.31
2018-11-29T05:25:37.534Z,3.77
2018-11-29T05:31:32.462Z,3.21
2018-11-29T05:37:27.548Z,4.29
2018-11-29T05:43:22.500Z,4.48
2018-11-29T05:49:17.473Z,3.57
2018-11-29T05:55:12.498Z,3.57
2018-11-29T06:01:07.487Z,3.33
2018-11-29T06:07:02.510Z,4.9
2018-11-29T06:12:57.491Z,3.56
2018-11-29T06:18:52.556Z,8.52
2018-11-29T06:24:47.515Z,4.33
2018-11-29T06:30:42.600Z,5.96
2018-11-29T06:36:37.546Z,10.93
2018-11-29T06:42:32.491Z,4.79
2018-11-29T06:48:27.525Z,4.97
2018-11-29T06:54:22.616Z,4.96
2018-11-29T07:00:17.511Z,4.03
2018-11-29T07:06:12.489Z,7.94
2018-11-29T07:12:07.505Z,6.12
2018-11-29T07:18:02.502Z,5.47
2018-11-29T07:23:57.522Z,13.49
2018-11-29T07:29:52.521Z,4.73
2018-11-29T07:35:47.521Z,4.72
2018-11-29T07:41:42.510Z,6.53
2018-11-29T07:47:37.526Z,8.84
2018-11-29T07:53:32.547Z,8.55
2018-11-29T07:59:27.530Z,9.66
2018-11-29T08:05:22.535Z,17.6
2018-11-29T08:11:17.536Z,20
2018-11-29T08:17:12.561Z,19.89
2018-11-29T08:23:07.537Z,25.9
2018-11-29T08:29:02.552Z,23.23
2018-11-29T08:34:57.541Z,15.53
2018-11-29T08:40:52.576Z,9.72
2018-11-29T08:46:47.568Z,7.95
2018-11-29T08:52:42.563Z,8.67
2018-11-29T08:58:37.550Z,8.92
2018-11-29T09:04:32.591Z,10.2
2018-11-29T09:10:31.500Z,9.17
2018-11-29T09:16:22.582Z,8.53
2018-11-29T09:22:17.958Z,7.53
2018-11-29T09:28:12.588Z,7.52
2018-11-29T09:34:07.573Z,8.36
2018-11-29T09:40:02.570Z,7.06
2018-11-29T09:45:57.610Z,9.38
2018-11-29T09:51:52.659Z,8.05
2018-11-29T09:57:47.587Z,7.41
2018-11-29T10:03:42.601Z,7.23
2018-11-29T10:09:37.626Z,5.88
2018-11-29T10:15:32.677Z,5.63
2018-11-29T10:21:27.606Z,4.98
2018-11-29T10:27:22.607Z,5.01
2018-11-29T10:33:17.607Z,5.52
2018-11-29T10:39:12.623Z,4.23
2018-11-29T10:45:07.617Z,5.77
2018-11-29T10:51:02.609Z,6.33
2018-11-29T10:56:57.613Z,7.8
2018-11-29T11:02:52.645Z,7.43
2018-11-29T11:08:47.634Z,5.27
2018-11-29T11:14:42.646Z,5.49
2018-11-29T11:20:37.635Z,5.57
2018-11-29T11:26:32.645Z,8
2018-11-29T11:32:27.696Z,8.01
2018-11-29T11:38:22.656Z,9.7
2018-11-29T11:44:17.687Z,9.67
2018-11-29T11:50:12.665Z,13.58
2018-11-29T11:56:07.698Z,10.48
2018-11-29T12:02:02.680Z,10.05
2018-11-29T12:07:57.689Z,11.96
2018-11-29T12:13:52.714Z,11.84
2018-11-29T12:19:47.685Z,9.49
2018-11-29T12:25:42.723Z,8.69
2018-11-29T12:31:37.699Z,8.02
2018-11-29T12:37:32.709Z,7.11
2018-11-29T12:43:27.774Z,6.73
2018-11-29T12:49:22.700Z,6.24
2018-11-29T12:55:17.703Z,6.89
2018-11-29T13:01:12.709Z,7.64
2018-11-29T13:07:07.717Z,6.67
2018-11-29T13:13:02.701Z,7.32
2018-11-29T13:18:57.708Z,5.96
2018-11-29T13:24:52.705Z,5.87
2018-11-29T13:30:47.784Z,5.9
2018-11-29T13:36:42.721Z,4.78
2018-11-29T13:42:37.974Z,8.7
2018-11-29T13:48:32.726Z,6.76
2018-11-29T13:54:27.779Z,6.6
2018-11-29T14:00:22.728Z,6.32
2018-11-29T14:06:17.764Z,5.11
2018-11-29T14:12:12.722Z,15
2018-11-29T14:18:07.731Z,8.69
2018-11-29T14:24:02.723Z,2.82
2018-11-29T14:29:57.783Z,5.21
2018-11-29T14:35:52.792Z,5.6
2018-11-29T14:41:47.726Z,4.23
2018-11-29T14:47:42.735Z,8.86
2018-11-29T14:53:37.778Z,8.88
2018-11-29T14:59:32.780Z,6.81
2018-11-29T15:05:27.778Z,13.09
2018-11-29T15:11:22.769Z,6.28
2018-11-29T15:17:17.791Z,7.44
2018-11-29T15:23:12.788Z,6.18
2018-11-29T15:29:07.820Z,6.9
2018-11-29T15:35:02.787Z,8.43
2018-11-29T15:40:57.748Z,6.24
2018-11-29T15:46:52.791Z,5.28
2018-11-29T15:52:47.795Z,6.83
2018-11-29T15:58:42.817Z,4.91
2018-11-29T16:04:37.770Z,4.66
2018-11-29T16:10:32.788Z,17.1
2018-11-29T16:16:27.797Z,5.09
2018-11-29T16:22:22.823Z,4.4
2018-11-29T16:28:17.803Z,3.39
2018-11-29T16:34:12.861Z,5.04
2018-11-29T16:40:07.818Z,4
2018-11-29T16:46:02.813Z,4.45
2018-11-29T16:51:57.825Z,8.25
2018-11-29T16:57:52.853Z,7.79
2018-11-29T17:03:47.819Z,10.11
2018-11-29T17:09:42.807Z,6.88
2018-11-29T17:15:37.815Z,11.78
2018-11-29T17:21:32.817Z,14.2
2018-11-29T17:27:27.893Z,10.47
2018-11-29T17:33:22.813Z,15.46
2018-11-29T17:39:17.844Z,18.85
2018-11-29T17:45:12.857Z,15.31
2018-11-29T17:51:07.843Z,11.27
2018-11-29T17:57:02.852Z,16.27
2018-11-29T18:02:57.845Z,12.4
2018-11-29T18:08:52.845Z,34.2
2018-11-29T18:14:47.851Z,20.81
2018-11-29T18:20:42.861Z,16.73
2018-11-29T18:26:37.873Z,18.04
2018-11-29T18:32:32.882Z,19.08
2018-11-29T18:38:27.863Z,30.27
2018-11-29T18:44:22.868Z,27.22
2018-11-29T18:50:17.853Z,15.55
2018-11-29T18:56:12.873Z,10.03
2018-11-29T19:02:07.891Z,13.23
2018-11-29T19:08:02.869Z,12.86
2018-11-29T19:13:57.889Z,25.31
2018-11-29T19:19:52.897Z,20.49
2018-11-29T19:25:47.950Z,16.65
2018-11-29T19:31:42.876Z,14.27
2018-11-29T19:37:37.875Z,12.98
2018-11-29T19:43:32.902Z,16.34
2018-11-29T19:49:27.898Z,18.41
2018-11-29T19:55:22.896Z,13.15
2018-11-29T20:01:17.924Z,11.99
2018-11-29T20:07:12.924Z,9.84
2018-11-29T20:13:07.918Z,10.13
2018-11-29T20:19:02.921Z,8.8
2018-11-29T20:24:57.950Z,9.91
2018-11-29T20:30:52.928Z,10.45
2018-11-29T20:36:47.945Z,8.32
2018-11-29T20:42:42.936Z,7.9
2018-11-29T20:48:37.934Z,10.84
2018-11-29T20:54:32.927Z,11.12
2018-11-29T21:00:27.972Z,8.84
2018-11-29T21:06:22.961Z,8.96
2018-11-29T21:12:17.965Z,12.36
2018-11-29T21:18:13.035Z,21.36
2018-11-29T21:24:08.003Z,15.61
2018-11-29T21:30:03.019Z,10.37
2018-11-29T21:35:57.988Z,12.47
2018-11-29T21:41:52.998Z,17.36
2018-11-29T21:47:47.963Z,15.37
2018-11-29T21:53:42.976Z,11.71
2018-11-29T21:59:37.954Z,10.44
2018-11-29T22:05:32.975Z,10.27
2018-11-29T22:11:27.971Z,10.57
2018-11-29T22:17:22.994Z,10.43
2018-11-29T22:23:18.004Z,9.61
2018-11-29T22:29:12.994Z,11.06
2018-11-29T22:35:08.007Z,8.54
2018-11-29T22:41:02.995Z,10.3
2018-11-29T22:46:57.983Z,9.84
2018-11-29T22:52:53.007Z,7.26
2018-11-29T22:58:48.009Z,6.99
2018-11-29T23:04:44.599Z,9.2
2018-11-29T23:10:38.548Z,11.4
2018-11-29T23:16:33.683Z,10.51
2018-11-29T23:22:31.252Z,11.14
2018-11-29T23:28:23.002Z,12.04
2018-11-29T23:34:18.051Z,10.16
2018-11-29T23:40:13.081Z,7.93
2018-11-29T23:46:08.052Z,12.03
2018-11-29T23:52:03.068Z,13.03
2018-11-29T23:57:58.016Z,13.64
